View Sortable Currents For Network
ASOSAWOSCoCoRaHSCOOPDCPISUSM
SchoolNetOtherSCANMy FavoritesBy StateRWIS
RWIS SurfaceRWIS TrafficRWIS SoilBy NWS WFOUSCRN

Current AWOS Conditions

** This page will automatically refresh every five minutes.
Sorted by: (Station ID)     Click on a column to sort it.

Add ID: Name: Ob Time   Wind [knots]   Rainfall
Temp (Hi / Lo) DewP Feels RH% Dir Speed Peak Gust
@ Time
Alti Vsby Hour Today
VTIVINTON10:35 AM 24(24/14) 22 18 92 110 421 @ 12:15 AM 29.98 1 0
TVKCenterville10:15 AM 32(32/18) 32 0 021 @ 05:35 AM 29.9 1.5 0.01 0.0001
TNUNEWTON MUNI10:15 AM 27(27/18) 27 100 27 @ 02:15 AM 29.93 1.25 0
SLBStorm Lake10:15 AM 19(19/18) 19 11 100 360 5G1314 @ 12:15 AM 29.95 3 0
SHLSHELDON10:15 AM 19(19/18) 19 4 100 350 1414 @ 10:15 AM 29.95 5 0
SDASHENANDOAH MUNI10:15 AM 30(32/27) 30 20 100 10 1128 @ 12:55 AM 29.91 6 0
RDKRED OAK10:15 AM 30(30/25) 30 21 100 20 924 @ 01:55 AM 29.91 1.75 0
PROPerry09:55 AM 25(25/19) 25 19 100 40 425 @ 12:35 AM 29.92 2 0
PEAPELLA10:15 AM 28(28/18) 26 23 92 100 421 @ 04:15 AM 29.94 1.75 0
OXVKnoxville10:15 AM 28(28/19) 28 23 100 80 424 @ 12:55 AM 29.91 1.5 0
ORCOrange City10:15 AM 19(21/19) 19 7 100 350 1010 @ 10:15 AM 29.97 10 0
OOAOskaloosa10:15 AM 28(28/17) 27 21 96 130 622 @ 12:35 AM 29.93 1.75 0
OLZOELWEIN10:15 AM 21(21/12) 21 11 100 140 828 @ 12:15 AM 29.97 2 0
MXOMONTICELLO MUNI10:15 AM M(0/0) M M M @ 06:00 PM 0
MUTMUSCATINE10:15 AM 28(28/19) 25 20 88 150 719 @ 03:15 AM 29.99 2 0
MPZMOUNT PLEASANT10:15 AM 32(32/28) 28 160 1113 @ 07:55 AM 29.95 7 0
LRJLE MARS10:15 AM 21(21/19) 19 8 92 340 1216 @ 09:55 AM 30 9 0
IKVANKENY10:15 AM 27(27/19) 25 92 @ 06:00 PM 29.95 2 0
IIBINDEPENDENCE10:15 AM 25(25/15) 23 15 92 130 928 @ 01:35 AM 29.97 1.25 0
IFAIowa Falls10:15 AM 25(25/18) 24 19 96 110 423 @ 12:55 AM 29.94 2 0
ICLCLARINDA10:15 AM 30(30/25) 30 21 100 20 920 @ 03:15 AM 29.91 3 0
I75Osceola10:15 AM 32(32/20) 31 0 024 @ 04:15 AM 29.9 1.75 0
HPTHampton10:15 AM 23(23/16) 19 17 84 90 422 @ 12:15 AM 29.94 2 0
HNRHARLAN10:15 AM 23(28/23) 23 12 100 10 918 @ 12:15 AM 29.94 1.75 0
GGIGrinnell10:35 AM 27(27/17) 26 22 96 120 425 @ 03:55 AM 29.95 1.5 0
FXYForest City10:15 AM 21(21/18) 21 16 100 70 324 @ 12:15 AM 29.95 2.5 0
FSWFORT MADISON10:15 AM 28(28/19) 27 18 96 150 1021 @ 02:55 AM 29.95 10 0
FODFORT DODGE10:19 AM 23(23/17) 21 18 92 90 321 @ 12:46 AM 29.95 2.5 0 0.0001
FFLFAIRFIELD10:15 AM 30(30/19) 25 22 81 140 821 @ 05:35 AM 29.93 6 0
EOKKEOKUK MUNI10:35 AM 34(34/19) 27 28 75 150 618 @ 03:15 AM 29.95 10 0
EBSWebster City10:15 AM 23(23/18) 25 17 109 110 428 @ 12:15 AM 29.93 1.5 0
DNSDENISON10:15 AM 23(25/21) 21 16 92 20 5G1015 @ 12:15 AM 29.97 5 0
DEHDECORAH10:15 AM 19(19/12) 19 14 100 110 322 @ 01:55 AM 29.97 4 0 0.0001
CWICLINTON09:56 AM 24(24/13) 23 12 96 150 1220 @ 05:00 AM 30.02 6 0.0001 0.0001
CSQCRESTON10:15 AM 30(30/21) 30 23 100 70 627 @ 03:35 AM 29.89 1.5 0
CNCCHARITON10:15 AM 30(30/19) 30 26 100 70 324 @ 12:35 AM 29.9 1.25 0 0.03
CKPCherokee10:15 AM 21(21/19) 20 11 96 350 77 @ 12:15 AM 29.99 5 0
CINCARROLL10:15 AM 23(23/19) 23 16 100 20 519 @ 12:55 AM 29.94 1.5 0
CCYCHARLES CITY10:35 AM 19(19/14) 19 11 100 90 524 @ 12:15 AM 29.98 1.25 0
CBFCOUNCIL BLUFFS10:15 AM 25(28/23) 25 13 100 360 1318 @ 09:55 AM 29.92 2 0
CAVCLARION10:15 AM 23(23/18) 23 15 100 130 625 @ 02:15 AM 29.94 2 0
BNWBOONE MUNI10:15 AM 25(25/19) 25 19 100 70 427 @ 12:55 AM 29.92 2 0
AXAALGONA10:15 AM 19(21/16) 19 10 100 360 625 @ 12:15 AM 29.95 2.5 0
AWGWASHINGTON10:15 AM 28(28/18) 27 19 96 140 922 @ 04:55 AM 29.96 1 0
AIOATLANTIC10:15 AM 27(30/23) 27 18 100 10 820 @ 12:15 AM 29.92 1.5 0
ADUAUDUBON10:15 AM 25(27/21) 21 85 0 022 @ 12:35 AM 29.93 2 0